createdAt,value
2022-12-25T00:01:25.045Z,100.00
2022-12-25T00:03:52.806Z,100.00
2022-12-25T00:06:20.334Z,100.00
2022-12-25T00:08:47.249Z,100.00
2022-12-25T00:11:17.024Z,100.00
2022-12-25T00:13:44.846Z,100.00
2022-12-25T00:16:16.454Z,100.00
2022-12-25T00:18:43.613Z,100.00
2022-12-25T00:21:12.085Z,100.00
2022-12-25T00:23:39.710Z,100.00
2022-12-25T00:26:09.762Z,100.00
2022-12-25T00:28:36.827Z,100.00
2022-12-25T00:31:13.377Z,100.00
2022-12-25T00:33:42.715Z,100.00
2022-12-25T00:36:10.883Z,100.00
2022-12-25T00:38:39.994Z,100.00
2022-12-25T00:41:12.494Z,100.00
2022-12-25T00:43:41.812Z,100.00
2022-12-25T00:46:10.738Z,100.00
2022-12-25T00:48:38.810Z,100.00
2022-12-25T00:51:08.758Z,100.00
2022-12-25T00:53:36.334Z,100.00
2022-12-25T00:56:06.324Z,100.00
2022-12-25T00:58:35.316Z,100.00
2022-12-25T01:01:03.126Z,100.00
2022-12-25T01:03:30.565Z,100.00
2022-12-25T01:06:03.489Z,100.00
2022-12-25T01:08:33.011Z,100.00
2022-12-25T01:11:05.095Z,100.00
2022-12-25T01:13:34.996Z,100.00
2022-12-25T01:16:07.444Z,100.00
2022-12-25T01:18:34.775Z,100.00
2022-12-25T01:21:16.178Z,100.00
2022-12-25T01:23:44.773Z,100.00
2022-12-25T01:26:13.784Z,100.00
2022-12-25T01:28:42.094Z,100.00
2022-12-25T01:31:11.813Z,100.00
2022-12-25T01:33:40.423Z,100.00
2022-12-25T01:36:20.502Z,100.00
2022-12-25T01:38:47.848Z,100.00
2022-12-25T01:41:17.796Z,100.00
2022-12-25T01:43:57.505Z,100.00
2022-12-25T01:46:25.118Z,100.00
2022-12-25T01:48:54.121Z,100.00
2022-12-25T01:51:33.949Z,100.00
2022-12-25T01:54:05.598Z,100.00
2022-12-25T01:56:35.101Z,100.00
2022-12-25T01:59:02.834Z,100.00
2022-12-25T02:01:29.740Z,100.00
2022-12-25T02:04:05.121Z,100.00
2022-12-25T02:06:33.325Z,100.00
2022-12-25T02:09:00.338Z,100.00
2022-12-25T02:11:46.055Z,100.00
2022-12-25T02:14:13.073Z,100.00
2022-12-25T02:16:56.519Z,100.00
2022-12-25T02:19:57.573Z,100.00
2022-12-25T02:22:55.255Z,100.00
2022-12-25T02:25:40.625Z,100.00
2022-12-25T02:28:22.711Z,100.00
2022-12-25T02:31:01.881Z,100.00
2022-12-25T02:33:54.356Z,100.00
2022-12-25T02:36:25.060Z,100.00
2022-12-25T02:39:18.188Z,100.00
2022-12-25T02:41:48.023Z,100.00
2022-12-25T02:44:39.203Z,100.00
2022-12-25T02:47:27.074Z,100.00
2022-12-25T02:50:15.492Z,100.00
2022-12-25T02:53:03.783Z,100.00
2022-12-25T02:55:55.220Z,100.00
2022-12-25T02:58:43.863Z,100.00
2022-12-25T03:01:33.693Z,100.00
2022-12-25T03:04:26.074Z,100.00
2022-12-25T03:07:14.458Z,100.00
2022-12-25T03:10:06.027Z,100.00
2022-12-25T03:12:46.371Z,100.00
2022-12-25T03:15:32.626Z,100.00
2022-12-25T03:18:03.547Z,100.00
2022-12-25T03:20:49.709Z,100.00
2022-12-25T03:23:40.608Z,100.00
2022-12-25T03:26:27.530Z,100.00
2022-12-25T03:28:54.742Z,100.00
2022-12-25T03:31:31.266Z,100.00
2022-12-25T03:34:35.287Z,100.00
2022-12-25T03:37:17.101Z,100.00
2022-12-25T03:40:28.076Z,100.00
2022-12-25T03:43:20.597Z,100.00
2022-12-25T03:46:05.429Z,100.00
2022-12-25T03:48:54.993Z,100.00
2022-12-25T03:51:46.835Z,100.00
2022-12-25T03:54:35.709Z,100.00
2022-12-25T03:57:21.451Z,100.00
2022-12-25T04:00:06.693Z,100.00
2022-12-25T04:02:53.676Z,100.00
2022-12-25T04:05:39.634Z,100.00
2022-12-25T04:08:25.384Z,100.00
2022-12-25T04:11:11.827Z,100.00
2022-12-25T04:13:57.542Z,100.00
2022-12-25T04:16:43.104Z,100.00
2022-12-25T04:19:48.584Z,100.00
2022-12-25T04:22:33.839Z,100.00
2022-12-25T04:25:19.826Z,100.00
2022-12-25T04:28:05.093Z,100.00
2022-12-25T04:30:50.471Z,100.00
2022-12-25T04:33:36.999Z,100.00
2022-12-25T04:36:10.336Z,100.00
2022-12-25T04:38:38.482Z,100.00
2022-12-25T04:41:05.830Z,100.00
2022-12-25T04:43:33.222Z,100.00
2022-12-25T04:46:02.255Z,100.00
2022-12-25T04:48:31.767Z,100.00
2022-12-25T04:50:58.642Z,100.00
2022-12-25T04:53:25.779Z,100.00
2022-12-25T04:56:01.500Z,100.00
2022-12-25T04:58:28.429Z,100.00
2022-12-25T05:00:59.282Z,100.00
2022-12-25T05:03:26.274Z,100.00
2022-12-25T05:05:53.896Z,100.00
2022-12-25T05:08:21.657Z,100.00
2022-12-25T05:10:49.161Z,100.00
2022-12-25T05:13:16.515Z,100.00
2022-12-25T05:15:44.020Z,100.00
2022-12-25T05:18:11.173Z,100.00
2022-12-25T05:20:40.443Z,100.00
2022-12-25T05:23:12.345Z,100.00
2022-12-25T05:25:40.630Z,100.00
2022-12-25T05:28:08.010Z,100.00
2022-12-25T05:30:36.088Z,100.00
2022-12-25T05:33:03.472Z,100.00
2022-12-25T05:35:31.393Z,100.00
2022-12-25T05:37:58.440Z,100.00
2022-12-25T05:40:25.860Z,100.00
2022-12-25T05:42:52.491Z,100.00
2022-12-25T05:45:19.629Z,100.00
2022-12-25T05:47:46.454Z,100.00
2022-12-25T05:50:13.310Z,100.00
2022-12-25T05:52:40.562Z,100.00
2022-12-25T05:55:07.868Z,100.00
2022-12-25T05:57:35.867Z,100.00
2022-12-25T06:00:06.896Z,100.00
2022-12-25T06:02:35.595Z,100.00
2022-12-25T06:05:04.539Z,100.00
2022-12-25T06:07:32.913Z,100.00
2022-12-25T06:10:00.742Z,100.00
2022-12-25T06:12:29.582Z,100.00
2022-12-25T06:14:56.675Z,100.00
2022-12-25T06:17:27.622Z,100.00
2022-12-25T06:19:54.925Z,100.00
2022-12-25T06:22:22.387Z,100.00
2022-12-25T06:24:49.672Z,100.00
2022-12-25T06:27:16.488Z,100.00
2022-12-25T06:29:43.690Z,100.00
2022-12-25T06:32:11.256Z,100.00
2022-12-25T06:34:38.279Z,100.00
2022-12-25T06:37:05.412Z,100.00
2022-12-25T06:39:32.578Z,100.00
2022-12-25T06:41:59.746Z,100.00
2022-12-25T06:44:26.729Z,100.00
2022-12-25T06:46:54.498Z,100.00
2022-12-25T06:49:21.822Z,100.00
2022-12-25T06:51:48.660Z,100.00
2022-12-25T06:54:15.441Z,100.00
2022-12-25T06:56:42.579Z,100.00
2022-12-25T06:59:10.894Z,100.00
2022-12-25T07:01:45.017Z,100.00
2022-12-25T07:04:18.850Z,100.00
2022-12-25T07:06:45.933Z,100.00
2022-12-25T07:09:13.436Z,100.00
2022-12-25T07:11:40.261Z,100.00
2022-12-25T07:14:07.010Z,100.00
2022-12-25T07:16:33.846Z,100.00
2022-12-25T07:19:01.472Z,100.00
2022-12-25T07:21:30.952Z,100.00
2022-12-25T07:23:57.851Z,100.00
2022-12-25T07:26:25.055Z,100.00
2022-12-25T07:28:52.435Z,100.00
2022-12-25T07:31:19.619Z,100.00
2022-12-25T07:33:46.671Z,100.00
2022-12-25T07:36:15.090Z,100.00
2022-12-25T07:38:42.855Z,100.00
2022-12-25T07:41:12.846Z,100.00
2022-12-25T07:43:40.500Z,100.00
2022-12-25T07:46:07.942Z,100.00
2022-12-25T07:48:35.792Z,100.00
2022-12-25T07:51:05.672Z,100.00
2022-12-25T07:53:35.063Z,100.00
2022-12-25T07:56:11.998Z,99.94
2022-12-25T07:58:39.753Z,99.72
2022-12-25T08:01:17.708Z,99.96
2022-12-25T08:03:49.647Z,99.73
2022-12-25T08:06:16.888Z,99.82
2022-12-25T08:08:43.753Z,99.70
2022-12-25T08:11:10.836Z,99.71
2022-12-25T08:13:38.045Z,99.72
2022-12-25T08:16:08.698Z,99.59
2022-12-25T08:18:37.115Z,99.35
2022-12-25T08:21:06.425Z,98.84
2022-12-25T08:23:39.140Z,99.20
2022-12-25T08:26:08.739Z,99.36
2022-12-25T08:28:36.530Z,99.44
2022-12-25T08:31:08.657Z,99.39
2022-12-25T08:33:36.377Z,99.46
2022-12-25T08:36:06.490Z,99.18
2022-12-25T08:38:33.754Z,98.89
2022-12-25T08:41:00.759Z,98.93
2022-12-25T08:43:28.351Z,98.74
2022-12-25T08:45:55.806Z,98.73
2022-12-25T08:48:23.163Z,98.89
2022-12-25T08:50:51.980Z,98.55
2022-12-25T08:53:20.738Z,99.43
2022-12-25T08:55:48.537Z,99.19
2022-12-25T08:58:16.791Z,99.31
2022-12-25T09:00:43.758Z,99.32
2022-12-25T09:03:11.142Z,99.48
2022-12-25T09:05:38.381Z,99.73
2022-12-25T09:08:05.593Z,99.74
2022-12-25T09:10:36.470Z,99.81
2022-12-25T09:13:04.176Z,100.00
2022-12-25T09:15:32.234Z,100.00
2022-12-25T09:17:59.672Z,100.00
2022-12-25T09:20:26.907Z,100.00
2022-12-25T09:22:54.120Z,100.00
2022-12-25T09:25:22.278Z,100.00
2022-12-25T09:27:49.649Z,100.00
2022-12-25T09:30:16.930Z,100.00
2022-12-25T09:32:44.080Z,100.00
2022-12-25T09:35:11.670Z,100.00
2022-12-25T09:37:38.588Z,100.00
2022-12-25T09:40:07.197Z,100.00
2022-12-25T09:42:34.671Z,100.00
2022-12-25T09:45:12.255Z,100.00
2022-12-25T09:47:44.573Z,100.00
2022-12-25T09:50:21.400Z,100.00
2022-12-25T09:52:58.625Z,100.00
2022-12-25T09:55:29.788Z,100.00
2022-12-25T09:57:59.073Z,100.00
2022-12-25T10:00:36.001Z,100.00
2022-12-25T10:03:47.409Z,100.00
2022-12-25T10:06:37.237Z,100.00
2022-12-25T10:09:10.055Z,100.00
2022-12-25T10:11:42.742Z,100.00
2022-12-25T10:14:33.510Z,100.00
2022-12-25T10:17:16.182Z,100.00
2022-12-25T10:20:04.547Z,100.00
2022-12-25T10:22:46.940Z,100.00
2022-12-25T10:25:21.758Z,100.00
2022-12-25T10:27:52.964Z,100.00
2022-12-25T10:30:24.085Z,100.00
2022-12-25T10:32:52.908Z,100.00
2022-12-25T10:35:25.802Z,100.00
2022-12-25T10:38:01.134Z,100.00
2022-12-25T10:40:52.993Z,100.00
2022-12-25T10:43:28.578Z,100.00
2022-12-25T10:45:56.005Z,100.00
2022-12-25T10:48:27.921Z,100.00
2022-12-25T10:50:56.464Z,100.00
2022-12-25T10:53:26.461Z,100.00
2022-12-25T10:56:02.058Z,100.00
2022-12-25T10:58:29.391Z,100.00
2022-12-25T11:01:03.425Z,100.00
2022-12-25T11:03:35.398Z,100.00
2022-12-25T11:06:02.953Z,100.00
2022-12-25T11:08:34.632Z,100.00
2022-12-25T11:11:06.456Z,100.00
2022-12-25T11:13:39.155Z,100.00
2022-12-25T11:16:14.316Z,100.00
2022-12-25T11:18:53.002Z,100.00
2022-12-25T11:21:24.620Z,100.00
2022-12-25T11:24:17.614Z,100.00
2022-12-25T11:26:50.636Z,100.00
2022-12-25T11:29:50.718Z,100.00
2022-12-25T11:32:26.301Z,100.00
2022-12-25T11:34:53.601Z,100.00
2022-12-25T11:37:44.212Z,100.00
2022-12-25T11:40:17.729Z,100.00
2022-12-25T11:42:54.768Z,100.00
2022-12-25T11:45:32.183Z,100.00
2022-12-25T11:48:06.211Z,100.00
2022-12-25T11:50:41.810Z,100.00
2022-12-25T11:53:22.696Z,100.00
2022-12-25T11:55:54.856Z,100.00
2022-12-25T11:58:29.139Z,100.00
2022-12-25T12:00:57.903Z,100.00
2022-12-25T12:03:36.525Z,100.00
2022-12-25T12:06:05.743Z,100.00
2022-12-25T12:08:34.051Z,100.00
2022-12-25T12:11:18.734Z,100.00
2022-12-25T12:14:50.972Z,100.00
2022-12-25T12:17:18.974Z,100.00
2022-12-25T12:19:46.036Z,100.00
2022-12-25T12:22:25.111Z,100.00
2022-12-25T12:25:06.091Z,100.00
2022-12-25T12:27:37.479Z,100.00
2022-12-25T12:30:09.802Z,100.00
2022-12-25T12:32:45.117Z,100.00
2022-12-25T12:35:26.469Z,100.00
2022-12-25T12:37:57.899Z,100.00
2022-12-25T12:40:36.519Z,100.00
2022-12-25T12:43:05.692Z,100.00
2022-12-25T12:45:35.945Z,100.00
2022-12-25T12:48:14.904Z,100.00
2022-12-25T12:50:42.650Z,100.00
2022-12-25T12:53:17.409Z,100.00
2022-12-25T12:55:44.216Z,100.00
2022-12-25T12:58:27.669Z,100.00
2022-12-25T13:01:27.382Z,100.00
2022-12-25T13:04:09.175Z,100.00
2022-12-25T13:07:00.976Z,100.00
2022-12-25T13:09:42.695Z,100.00
2022-12-25T13:12:12.532Z,100.00
2022-12-25T13:14:45.908Z,100.00
2022-12-25T13:17:17.089Z,100.00
2022-12-25T13:19:44.595Z,100.00
2022-12-25T13:22:32.784Z,100.00
2022-12-25T13:25:05.106Z,100.00
2022-12-25T13:27:33.627Z,100.00
2022-12-25T13:30:11.517Z,100.00
2022-12-25T13:32:38.336Z,100.00
2022-12-25T13:35:11.711Z,100.00
2022-12-25T13:37:38.843Z,100.00
2022-12-25T13:40:08.324Z,100.00
2022-12-25T13:42:37.657Z,100.00
2022-12-25T13:45:22.022Z,100.00
2022-12-25T13:47:55.151Z,100.00
2022-12-25T13:50:26.657Z,100.00
2022-12-25T13:52:56.756Z,100.00
2022-12-25T13:55:29.335Z,100.00
2022-12-25T13:57:56.254Z,100.00
2022-12-25T14:00:32.105Z,100.00
2022-12-25T14:02:59.720Z,100.00
2022-12-25T14:05:34.736Z,100.00
2022-12-25T14:08:23.038Z,100.00
2022-12-25T14:10:52.593Z,100.00
2022-12-25T14:13:23.411Z,100.00
2022-12-25T14:15:52.533Z,100.00
2022-12-25T14:18:21.669Z,100.00
2022-12-25T14:21:00.509Z,100.00
2022-12-25T14:23:33.394Z,100.00
2022-12-25T14:26:00.199Z,100.00
2022-12-25T14:28:32.849Z,100.00
2022-12-25T14:31:01.940Z,100.00
2022-12-25T14:33:35.232Z,100.00
2022-12-25T14:36:02.713Z,100.00
2022-12-25T14:38:35.199Z,100.00
2022-12-25T14:41:05.817Z,100.00
2022-12-25T14:43:34.525Z,100.00
2022-12-25T14:46:06.516Z,100.00
2022-12-25T14:48:34.146Z,100.00
2022-12-25T14:51:17.343Z,100.00
2022-12-25T14:53:56.089Z,100.00
2022-12-25T14:56:26.017Z,100.00
2022-12-25T14:58:55.814Z,100.00
2022-12-25T15:01:29.471Z,100.00
2022-12-25T15:04:23.865Z,100.00
2022-12-25T15:07:10.816Z,100.00
2022-12-25T15:09:37.869Z,100.00
2022-12-25T15:12:06.005Z,100.00
2022-12-25T15:14:36.355Z,100.00
2022-12-25T15:17:03.216Z,100.00
2022-12-25T15:19:37.630Z,100.00
2022-12-25T15:22:06.136Z,100.00
2022-12-25T15:24:32.962Z,100.00
2022-12-25T15:27:00.710Z,100.00
2022-12-25T15:32:19.144Z,100.00
2022-12-25T15:34:49.671Z,100.00
2022-12-25T15:37:18.695Z,100.00
2022-12-25T15:39:46.717Z,100.00
2022-12-25T15:42:17.119Z,100.00
2022-12-25T15:44:45.270Z,100.00
2022-12-25T15:47:14.251Z,100.00
2022-12-25T15:49:41.591Z,100.00
2022-12-25T15:52:14.174Z,100.00
2022-12-25T15:54:41.343Z,100.00
2022-12-25T15:57:27.273Z,100.00
2022-12-25T15:59:54.416Z,100.00
2022-12-25T16:02:21.439Z,100.00
2022-12-25T16:04:51.162Z,100.00
2022-12-25T16:07:20.621Z,100.00
2022-12-25T16:09:47.921Z,100.00
2022-12-25T16:12:14.861Z,100.00
2022-12-25T16:14:42.246Z,100.00
2022-12-25T16:17:15.694Z,100.00
2022-12-25T16:19:44.737Z,100.00
2022-12-25T16:22:21.599Z,100.00
2022-12-25T16:24:49.810Z,100.00
2022-12-25T16:27:16.680Z,100.00
2022-12-25T16:29:44.399Z,100.00
2022-12-25T16:32:13.043Z,100.00
2022-12-25T16:34:40.758Z,100.00
2022-12-25T16:37:07.942Z,100.00
2022-12-25T16:39:34.849Z,100.00
2022-12-25T16:42:02.120Z,100.00
2022-12-25T16:44:29.389Z,100.00
2022-12-25T16:46:56.341Z,100.00
2022-12-25T16:49:23.586Z,100.00
2022-12-25T16:51:50.683Z,100.00
2022-12-25T16:54:17.549Z,100.00
2022-12-25T16:56:44.572Z,100.00
2022-12-25T16:59:11.766Z,100.00
2022-12-25T17:01:43.161Z,100.00
2022-12-25T17:04:10.339Z,100.00
2022-12-25T17:06:37.912Z,100.00
2022-12-25T17:09:04.865Z,100.00
2022-12-25T17:11:32.525Z,100.00
2022-12-25T17:14:02.762Z,100.00
2022-12-25T17:16:32.644Z,100.00
2022-12-25T17:19:21.641Z,100.00
2022-12-25T17:21:48.622Z,100.00
2022-12-25T17:24:17.100Z,100.00
2022-12-25T17:26:44.770Z,100.00
2022-12-25T17:29:15.982Z,100.00
2022-12-25T17:31:47.258Z,100.00
2022-12-25T17:34:15.101Z,100.00
2022-12-25T17:36:42.011Z,100.00
2022-12-25T17:39:10.489Z,100.00
2022-12-25T17:41:37.319Z,100.00
2022-12-25T17:44:04.435Z,100.00
2022-12-25T17:46:32.288Z,100.00
2022-12-25T17:49:00.989Z,100.00
2022-12-25T17:51:29.886Z,100.00
2022-12-25T17:54:00.212Z,100.00
2022-12-25T17:56:27.206Z,100.00
2022-12-25T17:58:56.965Z,100.00
2022-12-25T18:01:25.316Z,100.00
2022-12-25T18:03:52.846Z,100.00
2022-12-25T18:06:22.727Z,100.00
2022-12-25T18:08:50.375Z,100.00
2022-12-25T18:11:29.282Z,100.00
2022-12-25T18:13:58.346Z,100.00
2022-12-25T18:16:26.534Z,100.00
2022-12-25T18:18:54.366Z,100.00
2022-12-25T18:21:22.739Z,100.00
2022-12-25T18:23:50.447Z,100.00
2022-12-25T18:26:18.078Z,100.00
2022-12-25T18:28:45.076Z,100.00
2022-12-25T18:31:15.525Z,100.00
2022-12-25T18:33:43.466Z,100.00
2022-12-25T18:36:12.692Z,100.00
2022-12-25T18:38:40.159Z,100.00
2022-12-25T18:41:09.130Z,100.00
2022-12-25T18:43:53.847Z,100.00
2022-12-25T18:46:25.359Z,100.00
2022-12-25T18:48:53.642Z,100.00
2022-12-25T18:51:20.675Z,100.00
2022-12-25T18:53:47.596Z,100.00
2022-12-25T18:56:18.264Z,100.00
2022-12-25T18:58:47.041Z,100.00
2022-12-25T19:01:19.390Z,100.00
2022-12-25T19:03:46.383Z,100.00
2022-12-25T19:06:21.608Z,100.00
2022-12-25T19:08:49.184Z,100.00
2022-12-25T19:11:17.459Z,100.00
2022-12-25T19:13:45.766Z,100.00
2022-12-25T19:16:13.335Z,100.00
2022-12-25T19:18:40.629Z,100.00
2022-12-25T19:21:08.739Z,100.00
2022-12-25T19:23:37.965Z,100.00
2022-12-25T19:26:07.600Z,100.00
2022-12-25T19:28:35.352Z,100.00
2022-12-25T19:31:04.290Z,100.00
2022-12-25T19:33:31.922Z,100.00
2022-12-25T19:36:05.612Z,100.00
2022-12-25T19:38:33.614Z,100.00
2022-12-25T19:41:18.248Z,100.00
2022-12-25T19:43:47.623Z,100.00
2022-12-25T19:46:20.149Z,100.00
2022-12-25T19:48:47.662Z,100.00
2022-12-25T19:51:39.129Z,100.00
2022-12-25T19:54:06.638Z,100.00
2022-12-25T19:56:34.363Z,100.00
2022-12-25T19:59:01.584Z,100.00
2022-12-25T20:01:29.379Z,100.00
2022-12-25T20:03:56.982Z,100.00
2022-12-25T20:06:29.861Z,100.00
2022-12-25T20:09:00.013Z,100.00
2022-12-25T20:11:30.112Z,100.00
2022-12-25T20:13:58.087Z,100.00
2022-12-25T20:16:25.883Z,100.00
2022-12-25T20:18:53.972Z,100.00
2022-12-25T20:21:22.815Z,100.00
2022-12-25T20:23:51.904Z,100.00
2022-12-25T20:26:21.811Z,100.00
2022-12-25T20:28:48.949Z,100.00
2022-12-25T20:31:18.064Z,100.00
2022-12-25T20:33:45.846Z,100.00
2022-12-25T20:36:13.167Z,100.00
2022-12-25T20:38:40.120Z,100.00
2022-12-25T20:41:27.926Z,100.00
2022-12-25T20:43:56.839Z,100.00
2022-12-25T20:46:24.884Z,100.00
2022-12-25T20:48:53.092Z,100.00
2022-12-25T20:51:26.271Z,100.00
2022-12-25T20:53:54.320Z,100.00
2022-12-25T20:56:23.387Z,100.00
2022-12-25T20:58:54.842Z,100.00
2022-12-25T21:01:22.122Z,100.00
2022-12-25T21:03:49.221Z,100.00
2022-12-25T21:06:16.607Z,100.00
2022-12-25T21:08:43.350Z,100.00
2022-12-25T21:11:11.184Z,100.00
2022-12-25T21:13:42.931Z,100.00
2022-12-25T21:16:13.472Z,100.00
2022-12-25T21:18:40.733Z,100.00
2022-12-25T21:21:07.950Z,100.00
2022-12-25T21:23:37.630Z,100.00
2022-12-25T21:26:15.918Z,100.00
2022-12-25T21:28:42.889Z,100.00
2022-12-25T21:31:10.078Z,100.00
2022-12-25T21:33:52.404Z,100.00
2022-12-25T21:36:32.081Z,100.00
2022-12-25T21:39:02.681Z,100.00
2022-12-25T21:41:31.355Z,100.00
2022-12-25T21:44:00.401Z,100.00
2022-12-25T21:46:28.797Z,100.00
2022-12-25T21:48:58.266Z,100.00
2022-12-25T21:51:49.258Z,100.00
2022-12-25T21:54:18.082Z,100.00
2022-12-25T21:56:47.212Z,100.00
2022-12-25T21:59:17.592Z,100.00
2022-12-25T22:01:45.651Z,100.00
2022-12-25T22:04:14.395Z,100.00
2022-12-25T22:07:01.209Z,100.00
2022-12-25T22:09:28.985Z,100.00
2022-12-25T22:12:14.526Z,100.00
2022-12-25T22:14:54.052Z,100.00
2022-12-25T22:17:52.293Z,100.00
2022-12-25T22:20:27.692Z,100.00
2022-12-25T22:22:54.997Z,100.00
2022-12-25T22:25:23.409Z,100.00
2022-12-25T22:27:51.192Z,100.00
2022-12-25T22:30:23.932Z,100.00
2022-12-25T22:32:51.903Z,100.00
2022-12-25T22:35:20.326Z,100.00
2022-12-25T22:37:48.210Z,100.00
2022-12-25T22:40:16.894Z,100.00
2022-12-25T22:42:43.862Z,100.00
2022-12-25T22:45:11.710Z,100.00
2022-12-25T22:47:38.886Z,100.00
2022-12-25T22:50:06.672Z,100.00
2022-12-25T22:52:33.843Z,100.00
2022-12-25T22:55:00.680Z,100.00
2022-12-25T22:57:27.900Z,100.00
2022-12-25T22:59:55.175Z,100.00
2022-12-25T23:02:22.455Z,100.00
2022-12-25T23:04:50.785Z,100.00
2022-12-25T23:07:18.150Z,100.00
2022-12-25T23:09:45.787Z,100.00
2022-12-25T23:12:32.902Z,100.00
2022-12-25T23:14:59.909Z,100.00
2022-12-25T23:17:45.839Z,100.00
2022-12-25T23:20:33.208Z,100.00
2022-12-25T23:23:19.680Z,100.00
2022-12-25T23:26:05.487Z,100.00
2022-12-25T23:28:51.217Z,100.00
2022-12-25T23:31:18.488Z,100.00
2022-12-25T23:33:45.821Z,100.00
2022-12-25T23:36:13.508Z,100.00
2022-12-25T23:38:40.091Z,100.00
2022-12-25T23:41:08.072Z,100.00
2022-12-25T23:43:35.097Z,100.00
2022-12-25T23:46:02.353Z,100.00
2022-12-25T23:48:29.569Z,100.00
2022-12-25T23:50:56.566Z,100.00
2022-12-25T23:53:23.635Z,100.00
2022-12-25T23:55:55.525Z,100.00
2022-12-25T23:58:24.460Z,100.00
